Hoeselt, Belgium
Current Conditions -  °F | °C
As of 7:25 PM on Saturday 20 Dec 2014 (Local Time) from EHBK Reporting Station
Broken Clouds Broken Clouds  
Wind Chill: 39°   Ceiling: 4500
Heat Index: 45°   Visibility: 6mi
Dew Point: 37°   Wind: 10mph
Humidity: 76%   Direction: 270°W
Pressure: 30.24"   Gusts: NA
Location:  50.85°N, 5.49°E
Report Text: EHBK 201825Z AUTO 27009KT 210V320 9999 FEW030 SCT037 BKN04507/03 Q1024 TEMPO 28011G22KT SCT025CB
Loading
Personal Weather Stations






























Interactive Weather Map New forecast layout! Learn more

10-Day Weather Forecast

Advertisements
Track Severe Weather on mobile